TimeEDT,TemperatureF,Dew PointF,Humidity,Sea Level PressureIn,VisibilityMPH,Wind Direction,Wind SpeedMPH,Gust SpeedMPH,PrecipitationIn,Events,Conditions,WindDirDegrees,DateUTC
12:21 AM,53.6,51.8,94,29.68,1.0,NNE,15.0,23.0,N/A,Rain,Light Rain,30,2011-10-20 04:21:00
12:47 AM,53.6,51.8,94,29.65,2.0,NE,20.7,29.9,N/A,Rain,Light Rain,40,2011-10-20 04:47:00
12:55 AM,53.4,52.3,96,29.65,2.0,NNE,15.0,25.3,0.01,Rain,Light Rain,30,2011-10-20 04:55:00
1:13 AM,53.6,51.8,94,29.65,3.0,NE,19.6,25.3,N/A,Rain,Light Rain,50,2011-10-20 05:13:00
1:42 AM,53.6,51.8,94,29.64,2.0,NE,16.1,26.5,N/A,Rain,Light Rain,40,2011-10-20 05:42:00
1:55 AM,53.4,52.2,95,29.62,3.0,NNE,16.1,24.2,0.07,Rain,Rain,30,2011-10-20 05:55:00
2:55 AM,53.6,52.2,95,29.57,1.5,NE,21.9,29.9,0.31,Rain,Heavy Rain,50,2011-10-20 06:55:00
3:14 AM,53.6,51.8,94,29.59,2.0,NE,17.3,25.3,N/A,Rain,Light Rain,40,2011-10-20 07:14:00
3:32 AM,53.6,51.8,94,29.58,3.0,NE,16.1,23.0,N/A,Rain,Light Rain,40,2011-10-20 07:32:00
3:47 AM,53.6,51.8,94,29.58,3.0,NNE,12.7,21.9,N/A,Rain,Light Rain,30,2011-10-20 07:47:00
3:55 AM,54.0,52.5,95,29.58,3.0,NE,13.8,-,0.20,Rain,Light Rain,40,2011-10-20 07:55:00
4:55 AM,54.1,53.1,96,29.59,2.0,NE,16.1,19.6,0.04,Rain,Light Rain,40,2011-10-20 08:55:00
5:20 AM,53.6,53.6,100,29.58,6.0,NE,15.0,-,N/A,Rain,Light Rain,40,2011-10-20 09:20:00
5:55 AM,54.3,52.9,95,29.58,7.0,NE,12.7,20.7,0.01,,Light Drizzle,40,2011-10-20 09:55:00
6:15 AM,55.4,53.6,94,29.57,7.0,NNE,10.4,-,N/A,,Overcast,30,2011-10-20 10:15:00
6:33 AM,53.6,53.6,100,29.57,6.0,North,8.1,-,N/A,,Overcast,360,2011-10-20 10:33:00
6:55 AM,54.3,53.2,96,29.58,7.0,NNE,6.9,-,0.00,,Overcast,20,2011-10-20 10:55:00
7:55 AM,54.1,53.2,97,29.57,5.0,NNE,10.4,-,N/A,,Overcast,30,2011-10-20 11:55:00
8:55 AM,54.3,53.4,97,29.54,10.0,NE,12.7,-,N/A,,Overcast,40,2011-10-20 12:55:00
9:55 AM,55.6,54.7,97,29.50,10.0,NE,11.5,-,N/A,,Overcast,40,2011-10-20 13:55:00
10:55 AM,56.5,55.6,97,29.52,2.0,NNE,10.4,-,N/A,,Overcast,30,2011-10-20 14:55:00
11:03 AM,55.4,55.4,100,29.50,0.8,NE,12.7,-,N/A,,Light Drizzle,40,2011-10-20 15:03:00
11:55 AM,57.0,56.7,99,29.49,0.8,NNE,8.1,-,0.00,,Light Drizzle,30,2011-10-20 15:55:00
12:40 PM,59.0,59.0,100,29.47,1.5,Variable,3.5,-,N/A,,Light Drizzle,0,2011-10-20 16:40:00
12:55 PM,59.5,59.2,99,29.47,3.0,Calm,Calm,-,0.00,,Overcast,0,2011-10-20 16:55:00
1:26 PM,62.6,60.8,94,29.46,10.0,Calm,Calm,-,N/A,,Mostly Cloudy,0,2011-10-20 17:26:00
1:55 PM,63.9,63.7,99,29.45,7.0,SE,8.1,-,N/A,,Mostly Cloudy,130,2011-10-20 17:55:00
2:19 PM,64.4,62.6,94,29.45,10.0,SSE,9.2,-,N/A,,Scattered Clouds,150,2011-10-20 18:19:00
2:55 PM,66.0,60.6,83,29.45,10.0,SSE,11.5,-,N/A,,Partly Cloudy,150,2011-10-20 18:55:00
3:55 PM,66.7,55.0,66,29.46,10.0,SSE,12.7,-,N/A,,Partly Cloudy,160,2011-10-20 19:55:00
4:55 PM,65.7,49.3,55,29.47,10.0,South,12.7,-,N/A,,Partly Cloudy,180,2011-10-20 20:55:00
5:55 PM,61.3,48.2,62,29.51,10.0,South,8.1,-,N/A,,Partly Cloudy,180,2011-10-20 21:55:00
6:55 PM,59.7,47.5,64,29.54,10.0,South,8.1,-,N/A,,Partly Cloudy,190,2011-10-20 22:55:00
7:55 PM,58.5,47.5,67,29.56,10.0,South,9.2,-,N/A,,Clear,190,2011-10-20 23:55:00
8:55 PM,57.4,46.8,68,29.58,10.0,SSW,11.5,19.6,N/A,,Clear,200,2011-10-21 00:55:00
9:55 PM,56.5,46.6,69,29.61,10.0,SSW,13.8,19.6,N/A,,Clear,200,2011-10-21 01:55:00
10:55 PM,55.6,46.9,73,29.62,10.0,SSW,10.4,-,N/A,,Partly Cloudy,200,2011-10-21 02:55:00
11:55 PM,55.0,46.6,73,29.64,10.0,SSW,9.2,-,N/A,,Scattered Clouds,210,2011-10-21 03:55:00